sensor_id;sensor_type;location;lat;lon;timestamp;temperature;humidity
6792;DHT22;3433;48.730;9.108;2023-04-25T00:01:34;10.20;99.90
6792;DHT22;3433;48.730;9.108;2023-04-25T00:04:03;10.20;99.90
6792;DHT22;3433;48.730;9.108;2023-04-25T00:06:31;10.20;99.90
6792;DHT22;3433;48.730;9.108;2023-04-25T00:09:00;10.30;99.90
6792;DHT22;3433;48.730;9.108;2023-04-25T00:11:27;10.30;99.90
6792;DHT22;3433;48.730;9.108;2023-04-25T00:13:55;10.30;99.90
6792;DHT22;3433;48.730;9.108;2023-04-25T00:16:22;10.30;99.90
6792;DHT22;3433;48.730;9.108;2023-04-25T00:18:49;10.30;99.90
6792;DHT22;3433;48.730;9.108;2023-04-25T00:21:19;10.30;99.90
6792;DHT22;3433;48.730;9.108;2023-04-25T00:23:46;10.30;99.90
6792;DHT22;3433;48.730;9.108;2023-04-25T00:26:15;10.30;99.90
6792;DHT22;3433;48.730;9.108;2023-04-25T00:28:42;10.30;99.90
6792;DHT22;3433;48.730;9.108;2023-04-25T00:31:09;10.30;99.90
6792;DHT22;3433;48.730;9.108;2023-04-25T00:33:36;10.20;99.90
6792;DHT22;3433;48.730;9.108;2023-04-25T00:36:03;10.20;99.90
6792;DHT22;3433;48.730;9.108;2023-04-25T00:38:30;10.20;99.90
6792;DHT22;3433;48.730;9.108;2023-04-25T00:40:57;10.20;99.90
6792;DHT22;3433;48.730;9.108;2023-04-25T00:43:26;10.20;99.90
6792;DHT22;3433;48.730;9.108;2023-04-25T00:45:53;10.20;99.90
6792;DHT22;3433;48.730;9.108;2023-04-25T00:48:23;10.20;99.90
6792;DHT22;3433;48.730;9.108;2023-04-25T00:50:52;10.20;99.90
6792;DHT22;3433;48.730;9.108;2023-04-25T00:53:19;10.20;99.90
6792;DHT22;3433;48.730;9.108;2023-04-25T00:55:46;10.20;99.90
6792;DHT22;3433;48.730;9.108;2023-04-25T00:58:16;10.20;99.90
6792;DHT22;3433;48.730;9.108;2023-04-25T01:00:45;10.10;99.90
6792;DHT22;3433;48.730;9.108;2023-04-25T01:03:13;10.10;99.90
6792;DHT22;3433;48.730;9.108;2023-04-25T01:05:42;10.10;99.90
6792;DHT22;3433;48.730;9.108;2023-04-25T01:08:09;10.10;99.90
6792;DHT22;3433;48.730;9.108;2023-04-25T01:10:36;10.10;99.90
6792;DHT22;3433;48.730;9.108;2023-04-25T01:13:03;10.10;99.90
6792;DHT22;3433;48.730;9.108;2023-04-25T01:15:30;10.10;99.90
6792;DHT22;3433;48.730;9.108;2023-04-25T01:17:59;10.20;99.90
6792;DHT22;3433;48.730;9.108;2023-04-25T01:20:27;10.30;99.90
6792;DHT22;3433;48.730;9.108;2023-04-25T01:22:56;10.20;99.90
6792;DHT22;3433;48.730;9.108;2023-04-25T01:25:24;10.00;99.90
6792;DHT22;3433;48.730;9.108;2023-04-25T01:27:51;10.00;99.90
6792;DHT22;3433;48.730;9.108;2023-04-25T01:30:18;9.90;99.90
6792;DHT22;3433;48.730;9.108;2023-04-25T01:32:46;9.80;99.90
6792;DHT22;3433;48.730;9.108;2023-04-25T01:35:13;9.80;99.90
6792;DHT22;3433;48.730;9.108;2023-04-25T01:37:41;9.70;99.90
6792;DHT22;3433;48.730;9.108;2023-04-25T01:40:10;9.80;99.90
6792;DHT22;3433;48.730;9.108;2023-04-25T01:42:43;9.60;99.90
6792;DHT22;3433;48.730;9.108;2023-04-25T01:45:11;9.60;99.90
6792;DHT22;3433;48.730;9.108;2023-04-25T01:47:38;9.70;99.90
6792;DHT22;3433;48.730;9.108;2023-04-25T01:50:08;9.60;99.90
6792;DHT22;3433;48.730;9.108;2023-04-25T01:52:35;9.60;99.90
6792;DHT22;3433;48.730;9.108;2023-04-25T01:55:02;9.60;99.90
6792;DHT22;3433;48.730;9.108;2023-04-25T01:57:31;9.50;99.90
6792;DHT22;3433;48.730;9.108;2023-04-25T01:59:59;9.60;99.90
6792;DHT22;3433;48.730;9.108;2023-04-25T02:02:26;9.60;99.90
6792;DHT22;3433;48.730;9.108;2023-04-25T02:04:56;9.60;99.90
6792;DHT22;3433;48.730;9.108;2023-04-25T02:07:23;9.60;99.90
6792;DHT22;3433;48.730;9.108;2023-04-25T02:09:50;9.60;99.90
6792;DHT22;3433;48.730;9.108;2023-04-25T02:12:17;9.60;99.90
6792;DHT22;3433;48.730;9.108;2023-04-25T02:14:45;9.60;99.90
6792;DHT22;3433;48.730;9.108;2023-04-25T02:17:12;9.50;99.90
6792;DHT22;3433;48.730;9.108;2023-04-25T02:19:39;9.50;99.90
6792;DHT22;3433;48.730;9.108;2023-04-25T02:22:06;9.50;99.90
6792;DHT22;3433;48.730;9.108;2023-04-25T02:24:33;9.50;99.90
6792;DHT22;3433;48.730;9.108;2023-04-25T02:27:00;9.50;99.90
6792;DHT22;3433;48.730;9.108;2023-04-25T02:29:27;9.40;99.90
6792;DHT22;3433;48.730;9.108;2023-04-25T02:31:56;9.40;99.90
6792;DHT22;3433;48.730;9.108;2023-04-25T02:34:22;9.40;99.90
6792;DHT22;3433;48.730;9.108;2023-04-25T02:36:49;9.40;99.90
6792;DHT22;3433;48.730;9.108;2023-04-25T02:39:17;9.40;99.90
6792;DHT22;3433;48.730;9.108;2023-04-25T02:41:47;9.40;99.90
6792;DHT22;3433;48.730;9.108;2023-04-25T02:44:16;9.40;99.90
6792;DHT22;3433;48.730;9.108;2023-04-25T02:46:43;9.50;99.90
6792;DHT22;3433;48.730;9.108;2023-04-25T02:49:11;9.40;99.90
6792;DHT22;3433;48.730;9.108;2023-04-25T02:51:38;9.40;99.90
6792;DHT22;3433;48.730;9.108;2023-04-25T02:54:05;9.40;99.90
6792;DHT22;3433;48.730;9.108;2023-04-25T02:56:33;9.40;99.90
6792;DHT22;3433;48.730;9.108;2023-04-25T02:59:00;9.40;99.90
6792;DHT22;3433;48.730;9.108;2023-04-25T03:01:28;9.40;99.90
6792;DHT22;3433;48.730;9.108;2023-04-25T03:03:57;9.30;99.90
6792;DHT22;3433;48.730;9.108;2023-04-25T03:06:26;9.30;99.90
6792;DHT22;3433;48.730;9.108;2023-04-25T03:08:56;9.40;99.90
6792;DHT22;3433;48.730;9.108;2023-04-25T03:11:26;9.40;99.90
6792;DHT22;3433;48.730;9.108;2023-04-25T03:13:53;9.40;99.90
6792;DHT22;3433;48.730;9.108;2023-04-25T03:16:20;9.40;99.90
6792;DHT22;3433;48.730;9.108;2023-04-25T03:18:47;9.40;99.90
6792;DHT22;3433;48.730;9.108;2023-04-25T03:21:15;9.30;99.90
6792;DHT22;3433;48.730;9.108;2023-04-25T03:23:44;9.30;99.90
6792;DHT22;3433;48.730;9.108;2023-04-25T03:26:11;9.30;99.90
6792;DHT22;3433;48.730;9.108;2023-04-25T03:28:38;9.40;99.90
6792;DHT22;3433;48.730;9.108;2023-04-25T03:31:05;9.40;99.90
6792;DHT22;3433;48.730;9.108;2023-04-25T03:33:33;9.40;99.90
6792;DHT22;3433;48.730;9.108;2023-04-25T03:36:00;9.40;99.90
6792;DHT22;3433;48.730;9.108;2023-04-25T03:38:27;9.40;99.90
6792;DHT22;3433;48.730;9.108;2023-04-25T03:40:56;9.40;99.90
6792;DHT22;3433;48.730;9.108;2023-04-25T03:43:26;9.40;99.90
6792;DHT22;3433;48.730;9.108;2023-04-25T03:45:53;9.40;99.90
6792;DHT22;3433;48.730;9.108;2023-04-25T03:48:20;9.40;99.90
6792;DHT22;3433;48.730;9.108;2023-04-25T03:50:50;9.40;99.90
6792;DHT22;3433;48.730;9.108;2023-04-25T03:53:21;9.40;99.90
6792;DHT22;3433;48.730;9.108;2023-04-25T03:55:48;9.40;99.90
6792;DHT22;3433;48.730;9.108;2023-04-25T03:58:16;9.40;99.90
6792;DHT22;3433;48.730;9.108;2023-04-25T04:00:44;9.40;99.90
6792;DHT22;3433;48.730;9.108;2023-04-25T04:03:11;9.40;99.90
6792;DHT22;3433;48.730;9.108;2023-04-25T04:05:38;9.40;99.90
6792;DHT22;3433;48.730;9.108;2023-04-25T04:08:06;9.40;99.90
6792;DHT22;3433;48.730;9.108;2023-04-25T04:10:33;9.40;99.90
6792;DHT22;3433;48.730;9.108;2023-04-25T04:13:00;9.50;99.90
6792;DHT22;3433;48.730;9.108;2023-04-25T04:15:29;9.50;99.90
6792;DHT22;3433;48.730;9.108;2023-04-25T04:17:58;9.40;99.90
6792;DHT22;3433;48.730;9.108;2023-04-25T04:20:28;9.40;99.90
6792;DHT22;3433;48.730;9.108;2023-04-25T04:22:55;9.40;99.90
6792;DHT22;3433;48.730;9.108;2023-04-25T04:25:22;9.40;99.90
6792;DHT22;3433;48.730;9.108;2023-04-25T04:27:55;9.40;99.90
6792;DHT22;3433;48.730;9.108;2023-04-25T04:30:23;9.30;99.90
6792;DHT22;3433;48.730;9.108;2023-04-25T04:32:52;9.40;99.90
6792;DHT22;3433;48.730;9.108;2023-04-25T04:35:19;9.40;99.90
6792;DHT22;3433;48.730;9.108;2023-04-25T04:37:46;9.30;99.90
6792;DHT22;3433;48.730;9.108;2023-04-25T04:40:14;9.30;99.90
6792;DHT22;3433;48.730;9.108;2023-04-25T04:42:42;9.40;99.90
6792;DHT22;3433;48.730;9.108;2023-04-25T04:45:10;9.30;99.90
6792;DHT22;3433;48.730;9.108;2023-04-25T04:47:38;9.20;99.90
6792;DHT22;3433;48.730;9.108;2023-04-25T04:50:07;9.30;99.90
6792;DHT22;3433;48.730;9.108;2023-04-25T04:52:35;9.30;99.90
6792;DHT22;3433;48.730;9.108;2023-04-25T04:55:05;9.30;99.90
6792;DHT22;3433;48.730;9.108;2023-04-25T04:57:35;9.30;99.90
6792;DHT22;3433;48.730;9.108;2023-04-25T05:00:03;9.30;99.90
6792;DHT22;3433;48.730;9.108;2023-04-25T05:02:32;9.30;99.90
6792;DHT22;3433;48.730;9.108;2023-04-25T05:04:59;9.40;99.90
6792;DHT22;3433;48.730;9.108;2023-04-25T05:07:27;9.40;99.90
6792;DHT22;3433;48.730;9.108;2023-04-25T05:09:54;9.80;99.90
6792;DHT22;3433;48.730;9.108;2023-04-25T05:12:21;10.30;99.90
6792;DHT22;3433;48.730;9.108;2023-04-25T05:14:51;10.80;99.90
6792;DHT22;3433;48.730;9.108;2023-04-25T05:17:18;11.20;99.90
6792;DHT22;3433;48.730;9.108;2023-04-25T05:19:45;11.30;99.90
6792;DHT22;3433;48.730;9.108;2023-04-25T05:22:12;11.40;99.90
6792;DHT22;3433;48.730;9.108;2023-04-25T05:24:41;11.30;99.90
6792;DHT22;3433;48.730;9.108;2023-04-25T05:27:08;11.20;99.90
6792;DHT22;3433;48.730;9.108;2023-04-25T05:29:34;11.20;99.90
6792;DHT22;3433;48.730;9.108;2023-04-25T05:32:02;11.00;99.90
6792;DHT22;3433;48.730;9.108;2023-04-25T05:34:29;10.90;99.90
6792;DHT22;3433;48.730;9.108;2023-04-25T05:36:58;10.80;99.90
6792;DHT22;3433;48.730;9.108;2023-04-25T05:39:25;10.70;99.90
6792;DHT22;3433;48.730;9.108;2023-04-25T05:41:54;10.70;99.90
6792;DHT22;3433;48.730;9.108;2023-04-25T05:44:21;10.50;99.90
6792;DHT22;3433;48.730;9.108;2023-04-25T05:46:48;10.50;99.90
6792;DHT22;3433;48.730;9.108;2023-04-25T05:49:15;10.40;99.90
6792;DHT22;3433;48.730;9.108;2023-04-25T05:51:42;10.40;99.90
6792;DHT22;3433;48.730;9.108;2023-04-25T05:54:09;10.40;99.90
6792;DHT22;3433;48.730;9.108;2023-04-25T05:56:36;10.30;99.90
6792;DHT22;3433;48.730;9.108;2023-04-25T05:59:04;10.20;99.90
6792;DHT22;3433;48.730;9.108;2023-04-25T06:01:31;10.10;99.90
6792;DHT22;3433;48.730;9.108;2023-04-25T06:03:58;10.10;99.90
6792;DHT22;3433;48.730;9.108;2023-04-25T06:06:25;10.10;99.90
6792;DHT22;3433;48.730;9.108;2023-04-25T06:08:52;10.10;99.90
6792;DHT22;3433;48.730;9.108;2023-04-25T06:11:19;10.10;99.90
6792;DHT22;3433;48.730;9.108;2023-04-25T06:13:46;10.10;99.90
6792;DHT22;3433;48.730;9.108;2023-04-25T06:16:14;10.10;99.90
6792;DHT22;3433;48.730;9.108;2023-04-25T06:18:41;10.00;99.90
6792;DHT22;3433;48.730;9.108;2023-04-25T06:21:08;10.10;99.90
6792;DHT22;3433;48.730;9.108;2023-04-25T06:23:35;10.10;99.90
6792;DHT22;3433;48.730;9.108;2023-04-25T06:26:02;10.10;99.90
6792;DHT22;3433;48.730;9.108;2023-04-25T06:28:29;10.10;99.90
6792;DHT22;3433;48.730;9.108;2023-04-25T06:32:43;10.00;99.90
6792;DHT22;3433;48.730;9.108;2023-04-25T06:34:09;10.00;99.90
6792;DHT22;3433;48.730;9.108;2023-04-25T06:36:36;10.00;99.90
6792;DHT22;3433;48.730;9.108;2023-04-25T06:39:03;10.00;99.90
6792;DHT22;3433;48.730;9.108;2023-04-25T06:41:30;10.10;99.90
6792;DHT22;3433;48.730;9.108;2023-04-25T06:43:57;10.10;99.90
6792;DHT22;3433;48.730;9.108;2023-04-25T06:46:24;10.10;99.90
6792;DHT22;3433;48.730;9.108;2023-04-25T06:48:51;10.00;99.90
6792;DHT22;3433;48.730;9.108;2023-04-25T06:51:19;10.00;99.90
6792;DHT22;3433;48.730;9.108;2023-04-25T06:53:46;10.10;99.90
6792;DHT22;3433;48.730;9.108;2023-04-25T06:56:13;10.10;99.90
6792;DHT22;3433;48.730;9.108;2023-04-25T06:58:41;10.00;99.90
6792;DHT22;3433;48.730;9.108;2023-04-25T07:01:08;10.00;99.90
6792;DHT22;3433;48.730;9.108;2023-04-25T07:03:35;10.00;99.90
6792;DHT22;3433;48.730;9.108;2023-04-25T07:06:04;10.00;99.90
6792;DHT22;3433;48.730;9.108;2023-04-25T07:08:33;10.00;99.90
6792;DHT22;3433;48.730;9.108;2023-04-25T07:11:00;10.00;99.90
6792;DHT22;3433;48.730;9.108;2023-04-25T07:13:27;10.10;99.90
6792;DHT22;3433;48.730;9.108;2023-04-25T07:15:57;10.10;99.90
6792;DHT22;3433;48.730;9.108;2023-04-25T07:18:24;10.00;99.90
6792;DHT22;3433;48.730;9.108;2023-04-25T07:20:51;10.10;99.90
6792;DHT22;3433;48.730;9.108;2023-04-25T07:23:18;10.00;99.90
6792;DHT22;3433;48.730;9.108;2023-04-25T07:25:47;10.00;99.90
6792;DHT22;3433;48.730;9.108;2023-04-25T07:28:13;10.10;99.90
6792;DHT22;3433;48.730;9.108;2023-04-25T07:30:40;10.10;99.90
6792;DHT22;3433;48.730;9.108;2023-04-25T07:33:07;10.10;99.90
6792;DHT22;3433;48.730;9.108;2023-04-25T07:35:34;10.10;99.90
6792;DHT22;3433;48.730;9.108;2023-04-25T07:38:02;10.10;99.90
6792;DHT22;3433;48.730;9.108;2023-04-25T07:40:28;10.10;99.90
6792;DHT22;3433;48.730;9.108;2023-04-25T07:43:00;10.10;99.90
6792;DHT22;3433;48.730;9.108;2023-04-25T07:45:27;10.00;99.90
6792;DHT22;3433;48.730;9.108;2023-04-25T07:47:56;10.00;99.90
6792;DHT22;3433;48.730;9.108;2023-04-25T07:50:23;10.00;99.90
6792;DHT22;3433;48.730;9.108;2023-04-25T07:52:50;10.00;99.90
6792;DHT22;3433;48.730;9.108;2023-04-25T07:55:17;9.90;99.90
6792;DHT22;3433;48.730;9.108;2023-04-25T07:57:44;9.90;99.90
6792;DHT22;3433;48.730;9.108;2023-04-25T08:00:13;9.90;99.90
6792;DHT22;3433;48.730;9.108;2023-04-25T08:02:40;10.00;99.90
6792;DHT22;3433;48.730;9.108;2023-04-25T08:05:08;9.90;99.90
6792;DHT22;3433;48.730;9.108;2023-04-25T08:07:37;9.90;99.90
6792;DHT22;3433;48.730;9.108;2023-04-25T08:10:05;9.90;99.90
6792;DHT22;3433;48.730;9.108;2023-04-25T08:12:32;9.90;99.90
6792;DHT22;3433;48.730;9.108;2023-04-25T08:14:59;9.80;99.90
6792;DHT22;3433;48.730;9.108;2023-04-25T08:17:27;9.90;99.90
6792;DHT22;3433;48.730;9.108;2023-04-25T08:19:57;9.90;99.90
6792;DHT22;3433;48.730;9.108;2023-04-25T08:22:24;10.00;99.90
6792;DHT22;3433;48.730;9.108;2023-04-25T08:24:50;9.90;99.90
6792;DHT22;3433;48.730;9.108;2023-04-25T08:27:18;9.90;99.90
6792;DHT22;3433;48.730;9.108;2023-04-25T08:29:46;9.90;99.90
6792;DHT22;3433;48.730;9.108;2023-04-25T08:32:13;9.90;99.90
6792;DHT22;3433;48.730;9.108;2023-04-25T08:34:41;9.90;99.90
6792;DHT22;3433;48.730;9.108;2023-04-25T08:37:09;9.90;99.90
6792;DHT22;3433;48.730;9.108;2023-04-25T08:39:36;9.90;99.90
6792;DHT22;3433;48.730;9.108;2023-04-25T08:42:06;9.90;99.90
6792;DHT22;3433;48.730;9.108;2023-04-25T08:44:34;9.90;99.90
6792;DHT22;3433;48.730;9.108;2023-04-25T08:47:02;9.90;99.90
6792;DHT22;3433;48.730;9.108;2023-04-25T08:49:31;9.80;99.90
6792;DHT22;3433;48.730;9.108;2023-04-25T08:52:04;9.80;99.90
6792;DHT22;3433;48.730;9.108;2023-04-25T08:54:32;9.80;99.90
6792;DHT22;3433;48.730;9.108;2023-04-25T08:57:01;9.80;99.90
6792;DHT22;3433;48.730;9.108;2023-04-25T08:59:30;9.80;99.90
6792;DHT22;3433;48.730;9.108;2023-04-25T09:01:57;9.70;99.90
6792;DHT22;3433;48.730;9.108;2023-04-25T09:04:24;9.60;99.90
6792;DHT22;3433;48.730;9.108;2023-04-25T09:06:51;9.60;99.90
6792;DHT22;3433;48.730;9.108;2023-04-25T09:09:19;9.70;99.90
6792;DHT22;3433;48.730;9.108;2023-04-25T09:11:46;9.60;99.90
6792;DHT22;3433;48.730;9.108;2023-04-25T09:14:15;9.60;99.90
6792;DHT22;3433;48.730;9.108;2023-04-25T09:17:01;9.70;99.90
6792;DHT22;3433;48.730;9.108;2023-04-25T09:19:31;9.60;99.90
6792;DHT22;3433;48.730;9.108;2023-04-25T09:21:59;9.60;99.90
6792;DHT22;3433;48.730;9.108;2023-04-25T09:24:33;9.60;99.90
6792;DHT22;3433;48.730;9.108;2023-04-25T09:27:01;9.50;99.90
6792;DHT22;3433;48.730;9.108;2023-04-25T09:29:30;9.50;99.90
6792;DHT22;3433;48.730;9.108;2023-04-25T09:32:17;9.50;99.90
6792;DHT22;3433;48.730;9.108;2023-04-25T09:34:46;9.40;99.90
6792;DHT22;3433;48.730;9.108;2023-04-25T09:37:32;9.40;99.90
6792;DHT22;3433;48.730;9.108;2023-04-25T09:40:06;9.30;99.90
6792;DHT22;3433;48.730;9.108;2023-04-25T09:42:33;9.30;99.90
6792;DHT22;3433;48.730;9.108;2023-04-25T09:45:01;9.30;99.90
6792;DHT22;3433;48.730;9.108;2023-04-25T09:47:28;9.20;99.90
6792;DHT22;3433;48.730;9.108;2023-04-25T09:49:55;9.20;99.90
6792;DHT22;3433;48.730;9.108;2023-04-25T09:52:23;9.00;99.90
6792;DHT22;3433;48.730;9.108;2023-04-25T09:54:51;9.10;99.90
6792;DHT22;3433;48.730;9.108;2023-04-25T09:57:20;9.10;99.90
6792;DHT22;3433;48.730;9.108;2023-04-25T09:59:49;9.10;99.90
6792;DHT22;3433;48.730;9.108;2023-04-25T10:02:18;9.10;99.90
6792;DHT22;3433;48.730;9.108;2023-04-25T10:04:48;9.20;99.90
6792;DHT22;3433;48.730;9.108;2023-04-25T10:07:18;9.10;99.90
6792;DHT22;3433;48.730;9.108;2023-04-25T10:09:48;9.20;99.90
6792;DHT22;3433;48.730;9.108;2023-04-25T10:12:16;9.10;99.90
6792;DHT22;3433;48.730;9.108;2023-04-25T10:14:45;9.00;99.90
6792;DHT22;3433;48.730;9.108;2023-04-25T10:17:12;9.10;99.90
6792;DHT22;3433;48.730;9.108;2023-04-25T10:19:40;9.10;99.90
6792;DHT22;3433;48.730;9.108;2023-04-25T10:22:13;9.20;99.90
6792;DHT22;3433;48.730;9.108;2023-04-25T10:24:41;9.20;99.90
6792;DHT22;3433;48.730;9.108;2023-04-25T10:27:09;9.20;99.90
6792;DHT22;3433;48.730;9.108;2023-04-25T10:29:37;9.20;99.90
6792;DHT22;3433;48.730;9.108;2023-04-25T10:32:05;9.30;99.90
6792;DHT22;3433;48.730;9.108;2023-04-25T10:34:39;9.40;99.90
6792;DHT22;3433;48.730;9.108;2023-04-25T10:37:09;9.40;99.90
6792;DHT22;3433;48.730;9.108;2023-04-25T10:39:38;9.40;99.90
6792;DHT22;3433;48.730;9.108;2023-04-25T10:42:05;9.40;99.90
6792;DHT22;3433;48.730;9.108;2023-04-25T10:44:33;9.40;99.90
6792;DHT22;3433;48.730;9.108;2023-04-25T10:47:01;9.40;99.90
6792;DHT22;3433;48.730;9.108;2023-04-25T10:49:33;9.40;99.90
6792;DHT22;3433;48.730;9.108;2023-04-25T10:52:25;9.40;99.90
6792;DHT22;3433;48.730;9.108;2023-04-25T10:54:54;9.40;99.90
6792;DHT22;3433;48.730;9.108;2023-04-25T10:57:34;9.40;99.90
6792;DHT22;3433;48.730;9.108;2023-04-25T11:00:10;9.30;99.90
6792;DHT22;3433;48.730;9.108;2023-04-25T11:02:41;9.40;99.90
6792;DHT22;3433;48.730;9.108;2023-04-25T11:05:18;9.40;99.90
6792;DHT22;3433;48.730;9.108;2023-04-25T11:07:50;9.40;99.90
6792;DHT22;3433;48.730;9.108;2023-04-25T11:10:18;9.40;99.90
6792;DHT22;3433;48.730;9.108;2023-04-25T11:12:45;9.50;99.90
6792;DHT22;3433;48.730;9.108;2023-04-25T11:15:13;9.50;99.90
6792;DHT22;3433;48.730;9.108;2023-04-25T11:17:40;9.40;99.90
6792;DHT22;3433;48.730;9.108;2023-04-25T11:20:09;9.30;99.90
6792;DHT22;3433;48.730;9.108;2023-04-25T11:22:39;9.40;99.90
6792;DHT22;3433;48.730;9.108;2023-04-25T11:25:08;9.40;99.90
6792;DHT22;3433;48.730;9.108;2023-04-25T11:27:38;9.30;99.90
6792;DHT22;3433;48.730;9.108;2023-04-25T11:30:13;9.40;99.90
6792;DHT22;3433;48.730;9.108;2023-04-25T11:32:41;9.30;99.90
6792;DHT22;3433;48.730;9.108;2023-04-25T11:35:09;9.50;99.90
6792;DHT22;3433;48.730;9.108;2023-04-25T11:37:35;9.60;99.90
6792;DHT22;3433;48.730;9.108;2023-04-25T11:40:05;9.60;99.90
6792;DHT22;3433;48.730;9.108;2023-04-25T11:42:34;9.60;99.90
6792;DHT22;3433;48.730;9.108;2023-04-25T11:45:01;9.70;99.90
6792;DHT22;3433;48.730;9.108;2023-04-25T11:47:30;9.80;99.90
6792;DHT22;3433;48.730;9.108;2023-04-25T11:49:58;9.90;99.90
6792;DHT22;3433;48.730;9.108;2023-04-25T11:52:35;9.80;99.90
6792;DHT22;3433;48.730;9.108;2023-04-25T11:55:06;9.60;99.90
6792;DHT22;3433;48.730;9.108;2023-04-25T11:57:33;9.70;99.90
6792;DHT22;3433;48.730;9.108;2023-04-25T12:00:08;9.80;99.90
6792;DHT22;3433;48.730;9.108;2023-04-25T12:02:36;9.80;99.90
6792;DHT22;3433;48.730;9.108;2023-04-25T12:05:06;9.90;99.90
6792;DHT22;3433;48.730;9.108;2023-04-25T12:07:33;9.90;99.90
6792;DHT22;3433;48.730;9.108;2023-04-25T12:10:06;9.80;99.90
6792;DHT22;3433;48.730;9.108;2023-04-25T12:12:34;9.80;99.90
6792;DHT22;3433;48.730;9.108;2023-04-25T12:15:12;9.90;99.90
6792;DHT22;3433;48.730;9.108;2023-04-25T12:17:41;9.80;99.90
6792;DHT22;3433;48.730;9.108;2023-04-25T12:20:10;10.00;99.90
6792;DHT22;3433;48.730;9.108;2023-04-25T12:22:37;9.90;99.90
6792;DHT22;3433;48.730;9.108;2023-04-25T12:25:06;9.90;99.90
6792;DHT22;3433;48.730;9.108;2023-04-25T12:27:33;9.90;99.90
6792;DHT22;3433;48.730;9.108;2023-04-25T12:30:01;10.10;99.90
6792;DHT22;3433;48.730;9.108;2023-04-25T12:32:29;10.00;99.90
6792;DHT22;3433;48.730;9.108;2023-04-25T12:34:56;10.20;99.90
6792;DHT22;3433;48.730;9.108;2023-04-25T12:37:23;10.30;99.90
6792;DHT22;3433;48.730;9.108;2023-04-25T12:39:50;10.30;99.90
6792;DHT22;3433;48.730;9.108;2023-04-25T12:42:18;10.50;99.90
6792;DHT22;3433;48.730;9.108;2023-04-25T12:44:45;10.50;99.90
6792;DHT22;3433;48.730;9.108;2023-04-25T12:47:12;10.50;99.90
6792;DHT22;3433;48.730;9.108;2023-04-25T12:49:40;10.60;99.90
6792;DHT22;3433;48.730;9.108;2023-04-25T12:52:07;10.50;99.90
6792;DHT22;3433;48.730;9.108;2023-04-25T12:54:34;10.10;99.90
6792;DHT22;3433;48.730;9.108;2023-04-25T12:57:01;10.30;99.90
6792;DHT22;3433;48.730;9.108;2023-04-25T12:59:29;10.30;99.90
6792;DHT22;3433;48.730;9.108;2023-04-25T13:01:56;10.40;99.90
6792;DHT22;3433;48.730;9.108;2023-04-25T13:04:23;10.50;99.90
6792;DHT22;3433;48.730;9.108;2023-04-25T13:06:50;10.60;99.90
6792;DHT22;3433;48.730;9.108;2023-04-25T13:09:17;10.60;99.90
6792;DHT22;3433;48.730;9.108;2023-04-25T13:11:44;10.50;99.90
6792;DHT22;3433;48.730;9.108;2023-04-25T13:14:11;10.50;99.90
6792;DHT22;3433;48.730;9.108;2023-04-25T13:16:39;10.50;99.90
6792;DHT22;3433;48.730;9.108;2023-04-25T13:19:06;10.50;99.90
6792;DHT22;3433;48.730;9.108;2023-04-25T13:21:36;10.70;99.90
6792;DHT22;3433;48.730;9.108;2023-04-25T13:24:03;11.10;99.90
6792;DHT22;3433;48.730;9.108;2023-04-25T13:26:30;11.10;99.90
6792;DHT22;3433;48.730;9.108;2023-04-25T13:28:57;11.30;99.90
6792;DHT22;3433;48.730;9.108;2023-04-25T13:31:25;11.30;99.90
6792;DHT22;3433;48.730;9.108;2023-04-25T13:33:54;11.10;99.90
6792;DHT22;3433;48.730;9.108;2023-04-25T13:36:21;11.20;99.90
6792;DHT22;3433;48.730;9.108;2023-04-25T13:38:48;11.20;99.90
6792;DHT22;3433;48.730;9.108;2023-04-25T13:41:14;11.40;99.90
6792;DHT22;3433;48.730;9.108;2023-04-25T13:43:44;11.40;99.90
6792;DHT22;3433;48.730;9.108;2023-04-25T13:46:12;11.20;99.90
6792;DHT22;3433;48.730;9.108;2023-04-25T13:48:41;11.20;99.90
6792;DHT22;3433;48.730;9.108;2023-04-25T13:51:14;11.10;99.90
6792;DHT22;3433;48.730;9.108;2023-04-25T13:53:42;11.20;99.90
6792;DHT22;3433;48.730;9.108;2023-04-25T13:56:09;11.20;99.90
6792;DHT22;3433;48.730;9.108;2023-04-25T13:58:37;11.30;99.90
6792;DHT22;3433;48.730;9.108;2023-04-25T14:01:04;11.30;99.90
6792;DHT22;3433;48.730;9.108;2023-04-25T14:03:31;11.10;99.90
6792;DHT22;3433;48.730;9.108;2023-04-25T14:05:58;11.20;99.90
6792;DHT22;3433;48.730;9.108;2023-04-25T14:08:26;11.20;99.90
6792;DHT22;3433;48.730;9.108;2023-04-25T14:10:54;11.30;99.90
6792;DHT22;3433;48.730;9.108;2023-04-25T14:13:21;11.40;99.90
6792;DHT22;3433;48.730;9.108;2023-04-25T14:15:48;11.50;99.90
6792;DHT22;3433;48.730;9.108;2023-04-25T14:18:17;11.40;99.90
6792;DHT22;3433;48.730;9.108;2023-04-25T14:20:44;11.80;99.90
6792;DHT22;3433;48.730;9.108;2023-04-25T14:23:10;11.90;99.90
6792;DHT22;3433;48.730;9.108;2023-04-25T14:25:39;11.90;99.90
6792;DHT22;3433;48.730;9.108;2023-04-25T14:28:07;12.00;99.90
6792;DHT22;3433;48.730;9.108;2023-04-25T14:30:34;11.90;99.90
6792;DHT22;3433;48.730;9.108;2023-04-25T14:33:01;11.90;99.90
6792;DHT22;3433;48.730;9.108;2023-04-25T14:35:28;12.40;99.90
6792;DHT22;3433;48.730;9.108;2023-04-25T14:37:55;12.40;99.90
6792;DHT22;3433;48.730;9.108;2023-04-25T14:40:22;12.50;99.90
6792;DHT22;3433;48.730;9.108;2023-04-25T14:42:50;12.50;99.90
6792;DHT22;3433;48.730;9.108;2023-04-25T14:45:17;12.40;99.90
6792;DHT22;3433;48.730;9.108;2023-04-25T14:47:44;12.10;99.90
6792;DHT22;3433;48.730;9.108;2023-04-25T14:50:11;12.20;99.90
6792;DHT22;3433;48.730;9.108;2023-04-25T14:52:39;12.30;99.90
6792;DHT22;3433;48.730;9.108;2023-04-25T14:55:07;12.50;99.90
6792;DHT22;3433;48.730;9.108;2023-04-25T14:57:34;12.70;99.90
6792;DHT22;3433;48.730;9.108;2023-04-25T15:00:03;12.80;99.90
6792;DHT22;3433;48.730;9.108;2023-04-25T15:02:34;12.70;99.90
6792;DHT22;3433;48.730;9.108;2023-04-25T15:05:01;12.70;99.90
6792;DHT22;3433;48.730;9.108;2023-04-25T15:07:28;12.70;99.90
6792;DHT22;3433;48.730;9.108;2023-04-25T15:09:58;12.70;99.90
6792;DHT22;3433;48.730;9.108;2023-04-25T15:12:25;12.60;99.90
6792;DHT22;3433;48.730;9.108;2023-04-25T15:14:56;12.50;99.90
6792;DHT22;3433;48.730;9.108;2023-04-25T15:17:24;13.00;99.90
6792;DHT22;3433;48.730;9.108;2023-04-25T15:19:52;13.40;99.90
6792;DHT22;3433;48.730;9.108;2023-04-25T15:22:20;13.30;99.90
6792;DHT22;3433;48.730;9.108;2023-04-25T15:24:46;13.20;99.90
6792;DHT22;3433;48.730;9.108;2023-04-25T15:27:13;13.10;99.90
6792;DHT22;3433;48.730;9.108;2023-04-25T15:29:41;13.00;99.90
6792;DHT22;3433;48.730;9.108;2023-04-25T15:32:08;13.00;99.90
6792;DHT22;3433;48.730;9.108;2023-04-25T15:34:36;13.10;99.90
6792;DHT22;3433;48.730;9.108;2023-04-25T15:37:03;12.90;99.90
6792;DHT22;3433;48.730;9.108;2023-04-25T15:39:31;13.00;99.90
6792;DHT22;3433;48.730;9.108;2023-04-25T15:41:58;13.10;99.90
6792;DHT22;3433;48.730;9.108;2023-04-25T15:44:26;13.10;99.90
6792;DHT22;3433;48.730;9.108;2023-04-25T15:46:59;13.00;99.90
6792;DHT22;3433;48.730;9.108;2023-04-25T15:49:26;12.80;99.90
6792;DHT22;3433;48.730;9.108;2023-04-25T15:51:54;12.70;99.90
6792;DHT22;3433;48.730;9.108;2023-04-25T15:54:22;12.90;99.90
6792;DHT22;3433;48.730;9.108;2023-04-25T15:56:52;12.80;99.90
6792;DHT22;3433;48.730;9.108;2023-04-25T15:59:19;12.60;99.90
6792;DHT22;3433;48.730;9.108;2023-04-25T16:01:46;12.60;99.90
6792;DHT22;3433;48.730;9.108;2023-04-25T16:04:12;12.50;99.90
6792;DHT22;3433;48.730;9.108;2023-04-25T16:06:40;12.60;99.90
6792;DHT22;3433;48.730;9.108;2023-04-25T16:09:08;12.70;99.90
6792;DHT22;3433;48.730;9.108;2023-04-25T16:11:36;12.30;99.90
6792;DHT22;3433;48.730;9.108;2023-04-25T16:14:03;12.50;99.90
6792;DHT22;3433;48.730;9.108;2023-04-25T16:16:30;12.40;99.90